sensor_id;sensor_type;location;lat;lon;timestamp;temperature;humidity
6118;DHT22;3089;48.202;11.510;2023-06-22T00:00:55;21.90;99.90
6118;DHT22;3089;48.202;11.510;2023-06-22T00:03:23;22.80;99.90
6118;DHT22;3089;48.202;11.510;2023-06-22T00:05:52;23.00;99.90
6118;DHT22;3089;48.202;11.510;2023-06-22T00:08:20;23.60;99.90
6118;DHT22;3089;48.202;11.510;2023-06-22T00:10:48;23.00;99.90
6118;DHT22;3089;48.202;11.510;2023-06-22T00:13:17;23.20;99.90
6118;DHT22;3089;48.202;11.510;2023-06-22T00:15:45;23.60;99.90
6118;DHT22;3089;48.202;11.510;2023-06-22T00:18:13;23.60;99.90
6118;DHT22;3089;48.202;11.510;2023-06-22T00:20:42;23.40;99.90
6118;DHT22;3089;48.202;11.510;2023-06-22T00:23:12;23.10;99.90
6118;DHT22;3089;48.202;11.510;2023-06-22T00:25:42;23.70;99.90
6118;DHT22;3089;48.202;11.510;2023-06-22T00:28:10;23.30;99.90
6118;DHT22;3089;48.202;11.510;2023-06-22T00:30:39;21.70;99.90
6118;DHT22;3089;48.202;11.510;2023-06-22T00:33:07;22.50;99.90
6118;DHT22;3089;48.202;11.510;2023-06-22T00:35:35;22.40;99.90
6118;DHT22;3089;48.202;11.510;2023-06-22T00:38:03;22.50;99.90
6118;DHT22;3089;48.202;11.510;2023-06-22T00:40:32;23.00;99.90
6118;DHT22;3089;48.202;11.510;2023-06-22T00:43:00;22.50;99.90
6118;DHT22;3089;48.202;11.510;2023-06-22T00:45:28;22.20;99.90
6118;DHT22;3089;48.202;11.510;2023-06-22T00:47:58;22.70;99.90
6118;DHT22;3089;48.202;11.510;2023-06-22T00:50:27;22.90;99.90
6118;DHT22;3089;48.202;11.510;2023-06-22T00:53:01;22.50;99.90
6118;DHT22;3089;48.202;11.510;2023-06-22T00:55:35;22.20;99.90
6118;DHT22;3089;48.202;11.510;2023-06-22T00:58:06;22.70;99.90
6118;DHT22;3089;48.202;11.510;2023-06-22T01:00:37;22.80;99.90
6118;DHT22;3089;48.202;11.510;2023-06-22T01:03:07;22.50;99.90
6118;DHT22;3089;48.202;11.510;2023-06-22T01:05:37;22.80;99.90
6118;DHT22;3089;48.202;11.510;2023-06-22T01:08:12;23.10;99.90
6118;DHT22;3089;48.202;11.510;2023-06-22T01:10:48;22.80;99.90
6118;DHT22;3089;48.202;11.510;2023-06-22T01:13:26;22.20;99.90
6118;DHT22;3089;48.202;11.510;2023-06-22T01:16:01;21.40;99.90
6118;DHT22;3089;48.202;11.510;2023-06-22T01:18:32;21.60;99.90
6118;DHT22;3089;48.202;11.510;2023-06-22T01:21:04;22.00;99.90
6118;DHT22;3089;48.202;11.510;2023-06-22T01:23:48;22.10;99.90
6118;DHT22;3089;48.202;11.510;2023-06-22T01:26:20;21.70;99.90
6118;DHT22;3089;48.202;11.510;2023-06-22T01:28:53;22.10;99.90
6118;DHT22;3089;48.202;11.510;2023-06-22T01:31:24;21.60;99.90
6118;DHT22;3089;48.202;11.510;2023-06-22T01:33:54;21.90;99.90
6118;DHT22;3089;48.202;11.510;2023-06-22T01:36:24;21.80;99.90
6118;DHT22;3089;48.202;11.510;2023-06-22T01:38:53;21.60;99.90
6118;DHT22;3089;48.202;11.510;2023-06-22T01:41:24;22.20;99.90
6118;DHT22;3089;48.202;11.510;2023-06-22T01:43:54;21.90;99.90
6118;DHT22;3089;48.202;11.510;2023-06-22T01:46:23;21.80;99.90
6118;DHT22;3089;48.202;11.510;2023-06-22T01:48:52;21.90;99.90
6118;DHT22;3089;48.202;11.510;2023-06-22T01:51:20;21.80;99.90
6118;DHT22;3089;48.202;11.510;2023-06-22T01:53:48;21.40;99.90
6118;DHT22;3089;48.202;11.510;2023-06-22T01:56:17;22.20;99.90
6118;DHT22;3089;48.202;11.510;2023-06-22T01:58:50;22.80;99.90
6118;DHT22;3089;48.202;11.510;2023-06-22T02:01:27;23.00;99.90
6118;DHT22;3089;48.202;11.510;2023-06-22T02:04:11;23.00;99.90
6118;DHT22;3089;48.202;11.510;2023-06-22T02:06:43;23.00;99.90
6118;DHT22;3089;48.202;11.510;2023-06-22T02:09:16;23.00;99.90
6118;DHT22;3089;48.202;11.510;2023-06-22T02:11:46;22.30;99.90
6118;DHT22;3089;48.202;11.510;2023-06-22T02:14:15;22.10;99.90
6118;DHT22;3089;48.202;11.510;2023-06-22T02:16:47;22.60;99.90
6118;DHT22;3089;48.202;11.510;2023-06-22T02:19:14;22.80;99.90
6118;DHT22;3089;48.202;11.510;2023-06-22T02:21:45;22.80;99.90
6118;DHT22;3089;48.202;11.510;2023-06-22T02:24:13;22.80;99.90
6118;DHT22;3089;48.202;11.510;2023-06-22T02:26:41;22.80;99.90
6118;DHT22;3089;48.202;11.510;2023-06-22T02:29:11;22.80;99.90
6118;DHT22;3089;48.202;11.510;2023-06-22T02:31:39;22.70;99.90
6118;DHT22;3089;48.202;11.510;2023-06-22T02:34:08;22.70;99.90
6118;DHT22;3089;48.202;11.510;2023-06-22T02:36:36;22.80;99.90
6118;DHT22;3089;48.202;11.510;2023-06-22T02:39:04;22.80;99.90
6118;DHT22;3089;48.202;11.510;2023-06-22T02:41:31;22.70;99.90
6118;DHT22;3089;48.202;11.510;2023-06-22T02:43:59;22.40;99.90
6118;DHT22;3089;48.202;11.510;2023-06-22T02:46:27;22.00;99.90
6118;DHT22;3089;48.202;11.510;2023-06-22T02:48:55;22.30;99.90
6118;DHT22;3089;48.202;11.510;2023-06-22T02:51:24;21.50;99.90
6118;DHT22;3089;48.202;11.510;2023-06-22T02:53:52;21.80;99.90
6118;DHT22;3089;48.202;11.510;2023-06-22T02:56:24;21.30;99.90
6118;DHT22;3089;48.202;11.510;2023-06-22T02:58:52;20.90;99.90
6118;DHT22;3089;48.202;11.510;2023-06-22T03:01:20;19.80;99.90
6118;DHT22;3089;48.202;11.510;2023-06-22T03:03:50;19.50;99.90
6118;DHT22;3089;48.202;11.510;2023-06-22T03:06:18;20.60;99.90
6118;DHT22;3089;48.202;11.510;2023-06-22T03:08:51;21.20;99.90
6118;DHT22;3089;48.202;11.510;2023-06-22T03:11:19;21.60;99.90
6118;DHT22;3089;48.202;11.510;2023-06-22T03:13:47;21.60;99.90
6118;DHT22;3089;48.202;11.510;2023-06-22T03:16:15;21.80;99.90
6118;DHT22;3089;48.202;11.510;2023-06-22T03:18:43;22.10;99.90
6118;DHT22;3089;48.202;11.510;2023-06-22T03:21:11;22.10;99.90
6118;DHT22;3089;48.202;11.510;2023-06-22T03:23:38;22.10;99.90
6118;DHT22;3089;48.202;11.510;2023-06-22T03:26:08;22.20;99.90
6118;DHT22;3089;48.202;11.510;2023-06-22T03:28:36;21.80;99.90
6118;DHT22;3089;48.202;11.510;2023-06-22T03:31:04;21.60;99.90
6118;DHT22;3089;48.202;11.510;2023-06-22T03:33:33;21.90;99.90
6118;DHT22;3089;48.202;11.510;2023-06-22T03:36:01;22.00;99.90
6118;DHT22;3089;48.202;11.510;2023-06-22T03:38:29;22.10;99.90
6118;DHT22;3089;48.202;11.510;2023-06-22T03:40:57;22.10;99.90
6118;DHT22;3089;48.202;11.510;2023-06-22T03:43:26;22.20;99.90
6118;DHT22;3089;48.202;11.510;2023-06-22T03:45:54;22.20;99.90
6118;DHT22;3089;48.202;11.510;2023-06-22T03:48:22;22.20;99.90
6118;DHT22;3089;48.202;11.510;2023-06-22T03:50:50;22.20;99.90
6118;DHT22;3089;48.202;11.510;2023-06-22T03:53:18;22.10;99.90
6118;DHT22;3089;48.202;11.510;2023-06-22T03:55:49;21.70;99.90
6118;DHT22;3089;48.202;11.510;2023-06-22T03:58:18;21.70;99.90
6118;DHT22;3089;48.202;11.510;2023-06-22T04:00:48;21.80;99.90
6118;DHT22;3089;48.202;11.510;2023-06-22T04:03:16;21.20;99.90
6118;DHT22;3089;48.202;11.510;2023-06-22T04:05:45;21.60;99.90
6118;DHT22;3089;48.202;11.510;2023-06-22T04:08:13;21.70;99.90
6118;DHT22;3089;48.202;11.510;2023-06-22T04:10:42;22.00;99.90
6118;DHT22;3089;48.202;11.510;2023-06-22T04:13:10;21.90;99.90
6118;DHT22;3089;48.202;11.510;2023-06-22T04:15:37;21.20;99.90
6118;DHT22;3089;48.202;11.510;2023-06-22T04:18:07;20.90;99.90
6118;DHT22;3089;48.202;11.510;2023-06-22T04:20:35;20.80;99.90
6118;DHT22;3089;48.202;11.510;2023-06-22T04:23:03;21.20;99.90
6118;DHT22;3089;48.202;11.510;2023-06-22T04:25:31;20.80;99.90
6118;DHT22;3089;48.202;11.510;2023-06-22T04:27:59;20.80;99.90
6118;DHT22;3089;48.202;11.510;2023-06-22T04:30:32;21.50;99.90
6118;DHT22;3089;48.202;11.510;2023-06-22T04:33:00;20.40;99.90
6118;DHT22;3089;48.202;11.510;2023-06-22T04:35:29;20.20;99.90
6118;DHT22;3089;48.202;11.510;2023-06-22T04:37:58;20.10;99.90
6118;DHT22;3089;48.202;11.510;2023-06-22T04:40:26;20.20;99.90
6118;DHT22;3089;48.202;11.510;2023-06-22T04:42:54;21.30;99.90
6118;DHT22;3089;48.202;11.510;2023-06-22T04:45:22;21.80;99.90
6118;DHT22;3089;48.202;11.510;2023-06-22T04:47:51;22.10;99.90
6118;DHT22;3089;48.202;11.510;2023-06-22T04:50:19;22.10;99.90
6118;DHT22;3089;48.202;11.510;2023-06-22T04:52:50;21.90;99.90
6118;DHT22;3089;48.202;11.510;2023-06-22T04:55:19;22.20;99.90
6118;DHT22;3089;48.202;11.510;2023-06-22T04:57:48;21.70;99.90
6118;DHT22;3089;48.202;11.510;2023-06-22T05:00:17;22.10;99.90
6118;DHT22;3089;48.202;11.510;2023-06-22T05:02:46;22.60;99.90
6118;DHT22;3089;48.202;11.510;2023-06-22T05:05:15;23.80;99.90
6118;DHT22;3089;48.202;11.510;2023-06-22T05:07:44;24.30;99.90
6118;DHT22;3089;48.202;11.510;2023-06-22T05:10:16;23.20;99.90
6118;DHT22;3089;48.202;11.510;2023-06-22T05:12:43;22.80;99.90
6118;DHT22;3089;48.202;11.510;2023-06-22T05:15:11;23.10;99.90
6118;DHT22;3089;48.202;11.510;2023-06-22T05:17:39;23.30;99.90
6118;DHT22;3089;48.202;11.510;2023-06-22T05:20:12;24.20;99.90
6118;DHT22;3089;48.202;11.510;2023-06-22T05:22:40;24.00;99.90
6118;DHT22;3089;48.202;11.510;2023-06-22T05:25:10;23.30;99.90
6118;DHT22;3089;48.202;11.510;2023-06-22T05:27:39;23.70;99.90
6118;DHT22;3089;48.202;11.510;2023-06-22T05:30:09;24.50;99.90
6118;DHT22;3089;48.202;11.510;2023-06-22T05:32:38;25.20;99.90
6118;DHT22;3089;48.202;11.510;2023-06-22T05:35:06;23.60;99.90
6118;DHT22;3089;48.202;11.510;2023-06-22T05:37:34;23.90;99.90
6118;DHT22;3089;48.202;11.510;2023-06-22T05:40:02;24.90;99.90
6118;DHT22;3089;48.202;11.510;2023-06-22T05:42:31;25.30;99.90
6118;DHT22;3089;48.202;11.510;2023-06-22T05:45:00;24.80;99.90
6118;DHT22;3089;48.202;11.510;2023-06-22T05:47:28;24.30;99.90
6118;DHT22;3089;48.202;11.510;2023-06-22T05:49:56;24.00;99.90
6118;DHT22;3089;48.202;11.510;2023-06-22T05:52:24;24.30;99.90
6118;DHT22;3089;48.202;11.510;2023-06-22T05:54:52;24.50;99.90
6118;DHT22;3089;48.202;11.510;2023-06-22T05:57:20;23.70;99.90
6118;DHT22;3089;48.202;11.510;2023-06-22T05:59:48;24.00;99.90
6118;DHT22;3089;48.202;11.510;2023-06-22T06:02:17;25.10;99.90
6118;DHT22;3089;48.202;11.510;2023-06-22T06:04:46;25.50;99.90
6118;DHT22;3089;48.202;11.510;2023-06-22T06:07:14;25.80;99.90
6118;DHT22;3089;48.202;11.510;2023-06-22T06:09:41;26.70;99.90
6118;DHT22;3089;48.202;11.510;2023-06-22T06:12:09;27.60;99.90
6118;DHT22;3089;48.202;11.510;2023-06-22T06:14:37;26.30;99.90
6118;DHT22;3089;48.202;11.510;2023-06-22T06:17:05;25.60;99.90
6118;DHT22;3089;48.202;11.510;2023-06-22T06:19:34;26.30;99.90
6118;DHT22;3089;48.202;11.510;2023-06-22T06:22:02;26.20;99.90
6118;DHT22;3089;48.202;11.510;2023-06-22T06:24:30;26.50;99.90
6118;DHT22;3089;48.202;11.510;2023-06-22T06:26:58;26.80;99.90
6118;DHT22;3089;48.202;11.510;2023-06-22T06:29:26;27.00;99.90
6118;DHT22;3089;48.202;11.510;2023-06-22T06:31:54;27.30;99.90
6118;DHT22;3089;48.202;11.510;2023-06-22T06:34:22;26.00;99.90
6118;DHT22;3089;48.202;11.510;2023-06-22T06:36:51;27.30;99.90
6118;DHT22;3089;48.202;11.510;2023-06-22T06:39:19;26.70;99.90
6118;DHT22;3089;48.202;11.510;2023-06-22T06:41:47;27.00;99.90
6118;DHT22;3089;48.202;11.510;2023-06-22T06:44:14;27.40;99.90
6118;DHT22;3089;48.202;11.510;2023-06-22T06:46:43;27.80;99.90
6118;DHT22;3089;48.202;11.510;2023-06-22T06:49:11;27.60;99.90
6118;DHT22;3089;48.202;11.510;2023-06-22T06:51:39;27.30;99.90
6118;DHT22;3089;48.202;11.510;2023-06-22T06:54:09;26.10;99.90
6118;DHT22;3089;48.202;11.510;2023-06-22T06:56:37;27.90;99.90
6118;DHT22;3089;48.202;11.510;2023-06-22T06:59:04;26.80;99.90
6118;DHT22;3089;48.202;11.510;2023-06-22T07:01:32;28.70;99.90
6118;DHT22;3089;48.202;11.510;2023-06-22T07:04:02;28.60;99.90
6118;DHT22;3089;48.202;11.510;2023-06-22T07:06:30;29.20;99.90
6118;DHT22;3089;48.202;11.510;2023-06-22T07:08:59;29.70;99.90
6118;DHT22;3089;48.202;11.510;2023-06-22T07:11:29;29.70;99.90
6118;DHT22;3089;48.202;11.510;2023-06-22T07:13:57;29.00;99.90
6118;DHT22;3089;48.202;11.510;2023-06-22T07:16:25;29.40;99.90
6118;DHT22;3089;48.202;11.510;2023-06-22T07:18:54;29.40;99.90
6118;DHT22;3089;48.202;11.510;2023-06-22T07:21:22;28.70;99.90
6118;DHT22;3089;48.202;11.510;2023-06-22T07:23:50;28.70;99.90
6118;DHT22;3089;48.202;11.510;2023-06-22T07:26:17;29.30;99.90
6118;DHT22;3089;48.202;11.510;2023-06-22T07:28:47;28.40;99.90
6118;DHT22;3089;48.202;11.510;2023-06-22T07:31:14;28.80;99.90
6118;DHT22;3089;48.202;11.510;2023-06-22T07:33:42;28.80;99.90
6118;DHT22;3089;48.202;11.510;2023-06-22T07:36:10;29.80;99.90
6118;DHT22;3089;48.202;11.510;2023-06-22T07:38:38;28.70;99.90
6118;DHT22;3089;48.202;11.510;2023-06-22T07:41:06;28.50;99.90
6118;DHT22;3089;48.202;11.510;2023-06-22T07:43:34;29.80;99.90
6118;DHT22;3089;48.202;11.510;2023-06-22T07:46:05;29.70;99.90
6118;DHT22;3089;48.202;11.510;2023-06-22T07:48:32;29.00;99.90
6118;DHT22;3089;48.202;11.510;2023-06-22T07:51:04;26.80;99.90
6118;DHT22;3089;48.202;11.510;2023-06-22T07:53:32;26.40;99.90
6118;DHT22;3089;48.202;11.510;2023-06-22T07:56:00;26.70;99.90
6118;DHT22;3089;48.202;11.510;2023-06-22T07:58:28;26.50;99.90
6118;DHT22;3089;48.202;11.510;2023-06-22T08:00:55;27.50;99.90
6118;DHT22;3089;48.202;11.510;2023-06-22T08:03:24;26.90;99.90
6118;DHT22;3089;48.202;11.510;2023-06-22T08:05:52;27.40;99.90
6118;DHT22;3089;48.202;11.510;2023-06-22T08:08:20;27.80;99.90
6118;DHT22;3089;48.202;11.510;2023-06-22T08:10:48;26.70;99.90
6118;DHT22;3089;48.202;11.510;2023-06-22T08:13:16;27.50;99.90
6118;DHT22;3089;48.202;11.510;2023-06-22T08:15:44;27.50;99.90
6118;DHT22;3089;48.202;11.510;2023-06-22T08:18:15;27.10;99.90
6118;DHT22;3089;48.202;11.510;2023-06-22T08:20:44;27.50;99.90
6118;DHT22;3089;48.202;11.510;2023-06-22T08:23:12;27.50;99.90
6118;DHT22;3089;48.202;11.510;2023-06-22T08:25:40;27.30;99.90
6118;DHT22;3089;48.202;11.510;2023-06-22T08:28:08;27.40;99.90
6118;DHT22;3089;48.202;11.510;2023-06-22T08:30:36;27.90;99.90
6118;DHT22;3089;48.202;11.510;2023-06-22T08:33:04;28.10;99.90
6118;DHT22;3089;48.202;11.510;2023-06-22T08:35:31;28.00;99.90
6118;DHT22;3089;48.202;11.510;2023-06-22T08:38:01;27.70;99.90
6118;DHT22;3089;48.202;11.510;2023-06-22T08:40:29;27.80;99.90
6118;DHT22;3089;48.202;11.510;2023-06-22T08:42:56;28.00;99.90
6118;DHT22;3089;48.202;11.510;2023-06-22T08:45:24;27.30;99.90
6118;DHT22;3089;48.202;11.510;2023-06-22T08:47:55;28.10;99.90
6118;DHT22;3089;48.202;11.510;2023-06-22T08:50:23;28.10;99.90
6118;DHT22;3089;48.202;11.510;2023-06-22T08:52:50;28.20;99.90
6118;DHT22;3089;48.202;11.510;2023-06-22T08:55:20;28.80;99.90
6118;DHT22;3089;48.202;11.510;2023-06-22T08:57:47;29.10;99.90
6118;DHT22;3089;48.202;11.510;2023-06-22T09:00:16;29.20;99.90
6118;DHT22;3089;48.202;11.510;2023-06-22T09:02:47;29.20;99.90
6118;DHT22;3089;48.202;11.510;2023-06-22T09:05:15;29.30;99.90
6118;DHT22;3089;48.202;11.510;2023-06-22T09:07:44;29.10;99.90
6118;DHT22;3089;48.202;11.510;2023-06-22T09:10:11;29.10;99.90
6118;DHT22;3089;48.202;11.510;2023-06-22T09:12:41;29.30;99.90
6118;DHT22;3089;48.202;11.510;2023-06-22T09:15:09;29.50;99.90
6118;DHT22;3089;48.202;11.510;2023-06-22T09:17:43;29.80;99.90
6118;DHT22;3089;48.202;11.510;2023-06-22T09:20:13;29.50;99.90
6118;DHT22;3089;48.202;11.510;2023-06-22T09:22:42;29.80;99.90
6118;DHT22;3089;48.202;11.510;2023-06-22T09:25:10;30.20;99.90
6118;DHT22;3089;48.202;11.510;2023-06-22T09:27:38;30.20;99.90
6118;DHT22;3089;48.202;11.510;2023-06-22T09:30:08;29.80;99.90
6118;DHT22;3089;48.202;11.510;2023-06-22T09:32:36;30.00;99.90
6118;DHT22;3089;48.202;11.510;2023-06-22T09:35:05;30.00;99.90
6118;DHT22;3089;48.202;11.510;2023-06-22T09:37:34;30.10;99.90
6118;DHT22;3089;48.202;11.510;2023-06-22T09:40:03;30.20;99.90
6118;DHT22;3089;48.202;11.510;2023-06-22T09:42:35;30.60;99.90
6118;DHT22;3089;48.202;11.510;2023-06-22T09:45:04;29.70;99.90
6118;DHT22;3089;48.202;11.510;2023-06-22T09:47:33;29.70;99.90
6118;DHT22;3089;48.202;11.510;2023-06-22T09:50:01;30.00;99.90
6118;DHT22;3089;48.202;11.510;2023-06-22T09:52:29;29.70;99.90
6118;DHT22;3089;48.202;11.510;2023-06-22T09:55:13;30.70;99.90
6118;DHT22;3089;48.202;11.510;2023-06-22T09:57:42;30.90;99.90
6118;DHT22;3089;48.202;11.510;2023-06-22T10:00:11;30.80;99.90
6118;DHT22;3089;48.202;11.510;2023-06-22T10:02:41;30.80;99.90
6118;DHT22;3089;48.202;11.510;2023-06-22T10:05:09;30.90;99.90
6118;DHT22;3089;48.202;11.510;2023-06-22T10:07:38;31.00;99.90
6118;DHT22;3089;48.202;11.510;2023-06-22T10:10:09;30.90;99.90
6118;DHT22;3089;48.202;11.510;2023-06-22T10:12:41;31.00;99.90
6118;DHT22;3089;48.202;11.510;2023-06-22T10:15:10;31.30;99.90
6118;DHT22;3089;48.202;11.510;2023-06-22T10:17:39;31.20;99.90
6118;DHT22;3089;48.202;11.510;2023-06-22T10:20:09;31.10;99.90
6118;DHT22;3089;48.202;11.510;2023-06-22T10:22:39;31.40;99.90
6118;DHT22;3089;48.202;11.510;2023-06-22T10:25:08;31.70;99.80
6118;DHT22;3089;48.202;11.510;2023-06-22T10:27:37;31.50;99.90
6118;DHT22;3089;48.202;11.510;2023-06-22T10:30:07;31.50;99.20
6118;DHT22;3089;48.202;11.510;2023-06-22T10:32:35;31.60;99.40
6118;DHT22;3089;48.202;11.510;2023-06-22T10:35:04;31.30;98.50
6118;DHT22;3089;48.202;11.510;2023-06-22T10:37:33;31.20;98.80
6118;DHT22;3089;48.202;11.510;2023-06-22T10:40:01;31.40;99.90
6118;DHT22;3089;48.202;11.510;2023-06-22T10:42:30;31.40;99.90
6118;DHT22;3089;48.202;11.510;2023-06-22T10:44:58;31.20;98.50
6118;DHT22;3089;48.202;11.510;2023-06-22T10:47:26;31.20;99.90
6118;DHT22;3089;48.202;11.510;2023-06-22T10:49:53;31.30;98.80
6118;DHT22;3089;48.202;11.510;2023-06-22T10:52:21;31.10;99.50
6118;DHT22;3089;48.202;11.510;2023-06-22T10:54:51;30.80;99.90
6118;DHT22;3089;48.202;11.510;2023-06-22T10:57:19;31.50;99.90
6118;DHT22;3089;48.202;11.510;2023-06-22T10:59:47;31.70;99.50
6118;DHT22;3089;48.202;11.510;2023-06-22T11:02:14;31.60;99.90
6118;DHT22;3089;48.202;11.510;2023-06-22T11:04:42;31.10;99.60
6118;DHT22;3089;48.202;11.510;2023-06-22T11:07:10;31.00;99.70
6118;DHT22;3089;48.202;11.510;2023-06-22T11:09:38;31.00;99.60
6118;DHT22;3089;48.202;11.510;2023-06-22T11:12:09;31.10;98.80
6118;DHT22;3089;48.202;11.510;2023-06-22T11:14:38;31.10;99.90
6118;DHT22;3089;48.202;11.510;2023-06-22T11:17:06;30.90;99.00
6118;DHT22;3089;48.202;11.510;2023-06-22T11:19:34;31.30;99.90
6118;DHT22;3089;48.202;11.510;2023-06-22T11:22:03;31.30;99.20
6118;DHT22;3089;48.202;11.510;2023-06-22T11:24:32;31.60;99.50
6118;DHT22;3089;48.202;11.510;2023-06-22T11:27:00;31.60;99.90
6118;DHT22;3089;48.202;11.510;2023-06-22T11:29:29;31.50;98.10
6118;DHT22;3089;48.202;11.510;2023-06-22T11:32:05;31.40;98.50
6118;DHT22;3089;48.202;11.510;2023-06-22T11:34:33;31.50;98.10
6118;DHT22;3089;48.202;11.510;2023-06-22T11:37:01;32.10;99.30
6118;DHT22;3089;48.202;11.510;2023-06-22T11:39:30;32.10;99.10
6118;DHT22;3089;48.202;11.510;2023-06-22T11:42:07;32.40;99.60
6118;DHT22;3089;48.202;11.510;2023-06-22T11:44:36;32.40;97.90
6118;DHT22;3089;48.202;11.510;2023-06-22T11:47:05;32.60;99.60
6118;DHT22;3089;48.202;11.510;2023-06-22T11:49:33;32.10;98.20
6118;DHT22;3089;48.202;11.510;2023-06-22T11:52:01;32.20;99.10
6118;DHT22;3089;48.202;11.510;2023-06-22T11:54:29;32.30;99.20
6118;DHT22;3089;48.202;11.510;2023-06-22T11:56:57;32.20;97.70
6118;DHT22;3089;48.202;11.510;2023-06-22T11:59:24;32.30;98.80
6118;DHT22;3089;48.202;11.510;2023-06-22T12:01:54;32.20;99.00
6118;DHT22;3089;48.202;11.510;2023-06-22T12:04:21;32.40;98.10
6118;DHT22;3089;48.202;11.510;2023-06-22T12:06:49;32.00;97.20
6118;DHT22;3089;48.202;11.510;2023-06-22T12:09:17;32.40;98.70
6118;DHT22;3089;48.202;11.510;2023-06-22T12:11:45;32.40;99.10
6118;DHT22;3089;48.202;11.510;2023-06-22T12:14:13;32.60;97.70
6118;DHT22;3089;48.202;11.510;2023-06-22T12:16:40;32.70;99.90
6118;DHT22;3089;48.202;11.510;2023-06-22T12:19:12;32.50;98.10
6118;DHT22;3089;48.202;11.510;2023-06-22T12:21:40;32.70;97.90
6118;DHT22;3089;48.202;11.510;2023-06-22T12:24:08;32.90;97.90
6118;DHT22;3089;48.202;11.510;2023-06-22T12:26:35;32.70;99.20
6118;DHT22;3089;48.202;11.510;2023-06-22T12:29:03;32.10;99.50
6118;DHT22;3089;48.202;11.510;2023-06-22T12:31:31;32.10;99.70
6118;DHT22;3089;48.202;11.510;2023-06-22T12:33:59;32.40;99.70
6118;DHT22;3089;48.202;11.510;2023-06-22T12:36:28;32.90;98.90
6118;DHT22;3089;48.202;11.510;2023-06-22T12:38:56;33.20;99.00
6118;DHT22;3089;48.202;11.510;2023-06-22T12:41:24;33.10;99.20
6118;DHT22;3089;48.202;11.510;2023-06-22T12:43:52;33.20;98.00
6118;DHT22;3089;48.202;11.510;2023-06-22T12:46:20;33.00;97.10
6118;DHT22;3089;48.202;11.510;2023-06-22T12:48:48;32.50;97.80
6118;DHT22;3089;48.202;11.510;2023-06-22T12:51:20;32.40;98.50
6118;DHT22;3089;48.202;11.510;2023-06-22T12:53:50;32.30;98.70
6118;DHT22;3089;48.202;11.510;2023-06-22T12:56:18;32.20;98.10
6118;DHT22;3089;48.202;11.510;2023-06-22T12:58:45;32.20;98.70
6118;DHT22;3089;48.202;11.510;2023-06-22T13:01:14;32.30;98.50
6118;DHT22;3089;48.202;11.510;2023-06-22T13:03:42;32.20;98.30
6118;DHT22;3089;48.202;11.510;2023-06-22T13:06:10;32.50;98.20
6118;DHT22;3089;48.202;11.510;2023-06-22T13:08:37;32.50;99.10
6118;DHT22;3089;48.202;11.510;2023-06-22T13:11:09;32.50;99.90
6118;DHT22;3089;48.202;11.510;2023-06-22T13:13:38;32.70;99.70
6118;DHT22;3089;48.202;11.510;2023-06-22T13:16:06;32.90;99.90
6118;DHT22;3089;48.202;11.510;2023-06-22T13:18:34;33.20;97.00
6118;DHT22;3089;48.202;11.510;2023-06-22T13:21:02;33.30;99.20
6118;DHT22;3089;48.202;11.510;2023-06-22T13:23:30;33.20;99.70
6118;DHT22;3089;48.202;11.510;2023-06-22T13:25:58;33.40;98.00
6118;DHT22;3089;48.202;11.510;2023-06-22T13:28:28;33.30;96.70
6118;DHT22;3089;48.202;11.510;2023-06-22T13:30:57;33.00;97.30
6118;DHT22;3089;48.202;11.510;2023-06-22T13:33:25;33.10;98.00
6118;DHT22;3089;48.202;11.510;2023-06-22T13:35:52;33.10;96.60
6118;DHT22;3089;48.202;11.510;2023-06-22T13:38:20;33.10;98.70
6118;DHT22;3089;48.202;11.510;2023-06-22T13:40:49;33.30;97.60
6118;DHT22;3089;48.202;11.510;2023-06-22T13:43:17;33.20;96.80
6118;DHT22;3089;48.202;11.510;2023-06-22T13:45:46;33.30;97.80
6118;DHT22;3089;48.202;11.510;2023-06-22T13:48:14;33.50;97.30
6118;DHT22;3089;48.202;11.510;2023-06-22T13:50:42;33.80;96.30
6118;DHT22;3089;48.202;11.510;2023-06-22T13:53:10;33.80;98.10
6118;DHT22;3089;48.202;11.510;2023-06-22T13:55:38;33.40;96.50
6118;DHT22;3089;48.202;11.510;2023-06-22T13:58:06;33.20;95.30
6118;DHT22;3089;48.202;11.510;2023-06-22T14:00:34;33.40;97.40
6118;DHT22;3089;48.202;11.510;2023-06-22T14:03:03;33.30;95.50
6118;DHT22;3089;48.202;11.510;2023-06-22T14:05:31;33.30;94.70
6118;DHT22;3089;48.202;11.510;2023-06-22T14:07:59;33.50;94.70
6118;DHT22;3089;48.202;11.510;2023-06-22T14:10:27;33.90;96.10
6118;DHT22;3089;48.202;11.510;2023-06-22T14:12:55;33.60;96.60
6118;DHT22;3089;48.202;11.510;2023-06-22T14:15:23;33.80;96.70
6118;DHT22;3089;48.202;11.510;2023-06-22T14:17:51;33.50;95.40
6118;DHT22;3089;48.202;11.510;2023-06-22T14:20:20;33.50;95.10
6118;DHT22;3089;48.202;11.510;2023-06-22T14:22:48;33.30;94.50
6118;DHT22;3089;48.202;11.510;2023-06-22T14:25:16;33.60;96.20
6118;DHT22;3089;48.202;11.510;2023-06-22T14:27:44;33.70;94.90
6118;DHT22;3089;48.202;11.510;2023-06-22T14:30:12;33.60;95.60
6118;DHT22;3089;48.202;11.510;2023-06-22T14:32:40;33.70;95.60
6118;DHT22;3089;48.202;11.510;2023-06-22T14:35:07;33.50;93.90
6118;DHT22;3089;48.202;11.510;2023-06-22T14:37:37;33.50;92.70
6118;DHT22;3089;48.202;11.510;2023-06-22T14:40:05;33.50;91.60
6118;DHT22;3089;48.202;11.510;2023-06-22T14:42:33;33.50;92.20
6118;DHT22;3089;48.202;11.510;2023-06-22T14:45:01;33.60;92.10
6118;DHT22;3089;48.202;11.510;2023-06-22T14:47:29;33.60;92.50
6118;DHT22;3089;48.202;11.510;2023-06-22T14:49:57;33.70;94.40
6118;DHT22;3089;48.202;11.510;2023-06-22T14:52:26;33.60;93.50
6118;DHT22;3089;48.202;11.510;2023-06-22T14:54:56;33.50;92.80
6118;DHT22;3089;48.202;11.510;2023-06-22T14:57:24;33.40;93.80
6118;DHT22;3089;48.202;11.510;2023-06-22T14:59:52;33.50;94.40
6118;DHT22;3089;48.202;11.510;2023-06-22T15:02:20;33.20;92.50
6118;DHT22;3089;48.202;11.510;2023-06-22T15:04:48;33.20;93.60
6118;DHT22;3089;48.202;11.510;2023-06-22T15:07:17;33.20;92.80
6118;DHT22;3089;48.202;11.510;2023-06-22T15:09:45;33.20;94.20
6118;DHT22;3089;48.202;11.510;2023-06-22T15:12:15;33.30;93.90
6118;DHT22;3089;48.202;11.510;2023-06-22T15:14:42;33.30;93.70
6118;DHT22;3089;48.202;11.510;2023-06-22T15:17:10;33.20;93.20
6118;DHT22;3089;48.202;11.510;2023-06-22T15:19:40;33.10;93.20
6118;DHT22;3089;48.202;11.510;2023-06-22T15:22:08;33.20;93.40
6118;DHT22;3089;48.202;11.510;2023-06-22T15:24:36;33.20;94.20
6118;DHT22;3089;48.202;11.510;2023-06-22T15:27:04;33.10;92.60
6118;DHT22;3089;48.202;11.510;2023-06-22T15:29:33;32.90;91.40
6118;DHT22;3089;48.202;11.510;2023-06-22T15:32:01;32.70;91.50
6118;DHT22;3089;48.202;11.510;2023-06-22T15:34:29;32.60;92.90
6118;DHT22;3089;48.202;11.510;2023-06-22T15:36:57;32.50;93.00
6118;DHT22;3089;48.202;11.510;2023-06-22T15:39:25;32.60;93.90
6118;DHT22;3089;48.202;11.510;2023-06-22T15:41:53;32.50;92.90
6118;DHT22;3089;48.202;11.510;2023-06-22T15:44:21;32.70;93.70
6118;DHT22;3089;48.202;11.510;2023-06-22T15:46:50;32.70;92.00
6118;DHT22;3089;48.202;11.510;2023-06-22T15:49:18;32.70;93.50
6118;DHT22;3089;48.202;11.510;2023-06-22T15:51:46;32.70;92.90
6118;DHT22;3089;48.202;11.510;2023-06-22T15:54:14;32.60;92.60